Time;durP1;ratioP1;P1;durP2;ratioP2;P2;SDS_P1;SDS_P2;PMS_P1;PMS_P2;Temp;Humidity;BMP_temperature;BMP_pressure;BME280_temperature;BME280_humidity;BME280_pressure;Samples;Min_cycle;Max_cycle;Signal;HPM_P1;HPM_P2
2022/09/04 17:31:21;;;;;;;8.25;5.60;;;;;;;21.23;58.48;99632.16;5143504;27;20224;-72
2022/09/04 17:33:55;;;;;;;5.80;4.85;;;;;;;21.24;58.93;99619.53;5122326;28;20220;-73
2022/09/04 17:36:31;;;;;;;4.78;4.15;;;;;;;21.30;58.29;99627.03;5122261;28;20351;-73
2022/09/04 17:39:07;;;;;;;5.28;4.60;;;;;;;21.33;58.20;99627.59;5122203;28;20067;-73
2022/09/04 17:41:42;;;;;;;5.25;4.25;;;;;;;21.07;58.18;99596.88;5122195;28;20056;-74
2022/09/04 17:44:24;;;;;;;4.95;4.10;;;;;;;21.31;58.26;99610.72;5122247;28;20055;-74
2022/09/04 17:47:08;;;;;;;5.72;4.40;;;;;;;21.46;57.96;99638.91;5104756;28;20058;-73
2022/09/04 17:49:42;;;;;;;4.82;4.25;;;;;;;21.53;58.32;99646.41;5122436;28;20051;-74
2022/09/04 17:52:20;;;;;;;4.22;3.83;;;;;;;21.57;58.96;99643.28;5122331;28;20056;-74
2022/09/04 17:54:49;;;;;;;5.88;4.38;;;;;;;21.55;58.70;99645.25;5104543;28;20056;-74
2022/09/04 17:57:24;;;;;;;3.78;3.33;;;;;;;21.59;58.32;99649.38;5122342;28;20093;-73
2022/09/04 18:00:00;;;;;;;4.97;4.40;;;;;;;21.63;58.13;99650.78;5122939;28;20055;-74
2022/09/04 18:02:39;;;;;;;6.75;4.50;;;;;;;21.62;58.12;99659.84;5122283;28;20081;-74
2022/09/04 18:05:18;;;;;;;5.68;3.72;;;;;;;21.60;58.31;99661.00;5121763;28;20055;-74
2022/09/04 18:07:50;;;;;;;6.93;4.32;;;;;;;21.63;58.62;99658.84;5122345;28;20063;-73
2022/09/04 18:10:27;;;;;;;4.97;4.47;;;;;;;21.65;58.54;99659.56;5121754;28;20055;-74
2022/09/04 18:13:07;;;;;;;7.18;5.60;;;;;;;21.65;58.69;99664.97;5122260;28;20066;-74
2022/09/04 18:15:41;;;;;;;5.93;5.25;;;;;;;21.65;59.33;99673.03;5122467;28;20055;-80
2022/09/04 18:18:18;;;;;;;5.30;4.03;;;;;;;21.65;57.85;99672.19;5105004;28;20062;-75
2022/09/04 18:20:54;;;;;;;5.93;5.15;;;;;;;21.64;58.25;99675.88;5122405;28;20043;-76
2022/09/04 18:23:37;;;;;;;5.03;4.28;;;;;;;21.11;57.50;99609.94;5122114;28;20051;-72
2022/09/04 18:26:11;;;;;;;6.35;4.70;;;;;;;21.55;58.93;99685.72;5122055;28;20224;-74
2022/09/04 18:28:49;;;;;;;5.50;4.05;;;;;;;21.06;58.00;99622.97;5121816;28;20220;-72
2022/09/04 18:31:24;;;;;;;4.53;3.92;;;;;;;21.50;58.55;99688.00;5122018;28;20046;-75
2022/09/04 18:34:04;;;;;;;5.70;4.65;;;;;;;21.49;57.71;99697.09;5121456;28;20056;-74
2022/09/04 18:36:36;;;;;;;6.05;4.93;;;;;;;21.46;58.13;99698.22;5103840;28;20055;-74
2022/09/04 18:39:11;;;;;;;5.50;4.63;;;;;;;21.51;58.54;99705.88;5121490;28;20316;-74
2022/09/04 18:42:10;;;;;;;4.70;4.20;;;;;;;21.50;57.56;99708.72;5112872;28;20060;-73
2022/09/04 18:44:44;;;;;;;5.82;4.15;;;;;;;19.21;57.40;99320.91;5107668;28;20151;-73
2022/09/04 18:47:21;;;;;;;;;;;;;;;21.30;57.54;99707.91;5108134;28;20060;-73
2022/09/04 18:49:59;;;;;;;5.07;4.22;;;;;;;21.06;57.81;99658.00;5103170;28;19965;-73
2022/09/04 18:52:33;;;;;;;5.38;4.32;;;;;;;21.38;58.24;99706.19;5107444;28;20051;-71
2022/09/04 18:55:09;;;;;;;4.90;4.35;;;;;;;21.46;58.52;99710.84;5090601;28;20056;-71
2022/09/04 18:57:47;;;;;;;7.78;5.03;;;;;;;21.48;58.14;99714.25;5087391;28;20094;-72
2022/09/04 19:00:25;;;;;;;5.00;4.50;;;;;;;21.46;57.22;99716.25;5087316;28;20110;-73
2022/09/04 19:03:01;;;;;;;4.95;4.30;;;;;;;21.46;58.11;99718.94;5087310;28;20102;-72
2022/09/04 19:05:36;;;;;;;4.93;3.92;;;;;;;21.41;57.85;99714.00;5087121;28;20064;-73
2022/09/04 19:08:09;;;;;;;7.03;4.43;;;;;;;21.42;58.52;99725.63;5087367;28;20044;-73
2022/09/04 19:10:45;;;;;;;6.57;4.80;;;;;;;21.36;57.49;99726.19;5087534;28;20041;-73
2022/09/04 19:13:23;;;;;;;5.47;4.97;;;;;;;21.35;57.23;99728.06;5086944;28;20064;-72
2022/09/04 19:16:00;;;;;;;5.45;4.57;;;;;;;21.31;57.33;99729.34;5069436;28;20065;-72
2022/09/04 19:18:44;;;;;;;8.75;6.05;;;;;;;21.24;57.12;99733.59;5086844;28;20083;-73
2022/09/04 19:21:40;;;;;;;11.90;9.50;;;;;;;21.16;57.70;99732.59;5086264;28;20070;-73
2022/09/04 19:24:20;;;;;;;8.23;7.38;;;;;;;21.20;57.91;99731.34;5086258;28;20064;-73
2022/09/04 19:27:06;;;;;;;6.80;5.57;;;;;;;20.89;58.03;99676.72;5086645;28;20305;-73
2022/09/04 19:29:42;;;;;;;7.53;5.97;;;;;;;21.15;58.39;99726.38;5086465;28;20064;-73
2022/09/04 19:32:16;;;;;;;7.60;6.78;;;;;;;21.03;58.33;99714.03;5086455;28;20053;-73
2022/09/04 19:34:51;;;;;;;6.40;5.72;;;;;;;21.01;58.07;99716.84;5086677;28;20117;-74
2022/09/04 19:37:25;;;;;;;7.57;5.72;;;;;;;20.43;58.14;99622.56;5086541;28;20052;-73
2022/09/04 19:39:57;;;;;;;6.15;4.82;;;;;;;21.13;58.65;99722.97;5086345;28;20088;-73
2022/09/04 19:42:27;;;;;;;8.07;5.43;;;;;;;21.14;58.79;99736.31;5085941;28;20053;-75
2022/09/04 19:44:59;;;;;;;6.07;5.47;;;;;;;21.04;58.56;99715.75;5087028;28;20219;-72
2022/09/04 19:47:46;;;;;;;6.65;5.35;;;;;;;20.69;57.92;99662.41;5086608;28;20056;-72
2022/09/04 19:50:16;;;;;;;6.07;5.25;;;;;;;21.17;58.65;99734.31;5086339;28;20056;-72
2022/09/04 19:52:51;;;;;;;5.75;5.10;;;;;;;21.19;58.04;99737.72;5085152;28;20056;-71
2022/09/04 19:55:22;;;;;;;7.40;6.60;;;;;;;21.19;58.47;99733.19;5086801;28;20048;-70
2022/09/04 19:58:00;;;;;;;6.47;5.38;;;;;;;21.17;57.94;99731.63;5086196;28;20098;-70
2022/09/04 20:00:30;;;;;;;5.57;4.63;;;;;;;21.11;58.03;99733.03;5086280;28;20259;-72
2022/09/04 20:03:01;;;;;;;4.88;4.35;;;;;;;21.05;58.38;99733.59;5086467;28;20044;-71
2022/09/04 20:05:30;;;;;;;5.45;4.85;;;;;;;21.04;58.64;99729.22;5085806;28;20271;-70
2022/09/04 20:08:07;;;;;;;5.32;4.30;;;;;;;20.66;58.04;99660.84;5085950;28;20075;-71
2022/09/04 20:10:43;;;;;;;5.82;4.90;;;;;;;21.00;58.22;99734.00;5085991;28;20052;-71
2022/09/04 20:13:21;;;;;;;7.80;4.25;;;;;;;20.97;58.09;99730.75;5067767;28;20048;-71
2022/09/04 20:15:55;;;;;;;6.03;5.28;;;;;;;21.01;57.92;99732.16;5084678;28;20110;-71
2022/09/04 20:18:27;;;;;;;6.50;5.15;;;;;;;21.01;58.46;99738.41;5083815;28;20053;-71
2022/09/04 20:21:04;;;;;;;8.90;5.75;;;;;;;21.04;58.28;99735.44;5083229;28;20304;-71
2022/09/04 20:23:41;;;;;;;8.05;5.70;;;;;;;21.04;57.94;99730.06;5083252;28;20057;-71
2022/09/04 20:26:17;;;;;;;7.07;6.05;;;;;;;20.57;58.37;99667.06;5066279;28;20056;-71
2022/09/04 20:28:54;;;;;;;8.30;6.63;;;;;;;21.00;58.06;99739.38;5083898;28;20318;-72
2022/09/04 20:31:31;;;;;;;6.90;6.20;;;;;;;20.99;58.37;99743.06;5063842;28;20119;-72
2022/09/04 20:34:04;;;;;;;11.20;7.90;;;;;;;20.93;58.19;99740.94;5046247;28;20048;-71
2022/09/04 20:36:37;;;;;;;9.00;7.00;;;;;;;20.96;58.79;99748.75;5064624;28;20151;-71
2022/09/04 20:39:11;;;;;;;8.00;6.03;;;;;;;20.96;58.35;99748.75;5063590;28;20106;-72
2022/09/04 20:41:44;;;;;;;;;;;;;;;20.75;58.57;99754.25;5064809;28;20094;-72
2022/09/04 20:44:19;;;;;;;7.82;7.00;;;;;;;20.83;58.89;99757.09;5064802;28;20100;-72
2022/09/04 20:46:53;;;;;;;8.20;7.25;;;;;;;20.90;58.52;99756.53;5064339;28;20122;-72
2022/09/04 20:49:30;;;;;;;8.00;6.75;;;;;;;20.91;58.73;99763.63;5064060;28;20072;-72
2022/09/04 20:51:59;;;;;;;6.82;5.80;;;;;;;20.89;58.95;99773.69;5064408;28;20249;-72
2022/09/04 20:54:47;;;;;;;7.45;5.03;;;;;;;20.90;58.47;99759.25;5064328;28;20060;-74
2022/09/04 20:57:30;;;;;;;6.40;5.70;;;;;;;20.85;58.55;99767.75;5064806;28;20309;-72
2022/09/04 21:00:03;;;;;;;6.90;6.07;;;;;;;20.81;58.79;99764.47;5047376;28;20317;-71
2022/09/04 21:02:48;;;;;;;6.28;5.35;;;;;;;20.78;58.75;99761.22;5064948;28;20045;-70
2022/09/04 21:05:37;;;;;;;6.63;5.18;;;;;;;20.72;58.66;99769.84;5064677;28;20052;-70
2022/09/04 21:08:12;;;;;;;6.10;5.07;;;;;;;20.71;59.10;99766.31;5064601;28;20321;-70
2022/09/04 21:10:52;;;;;;;5.47;4.93;;;;;;;20.71;58.74;99765.44;5064772;28;20065;-73
2022/09/04 21:13:27;;;;;;;5.38;4.88;;;;;;;20.72;59.21;99769.84;5064832;28;20316;-71
2022/09/04 21:16:05;;;;;;;7.68;5.15;;;;;;;20.58;58.80;99749.56;5063913;28;20301;-72
2022/09/04 21:18:48;;;;;;;5.63;5.00;;;;;;;20.67;58.70;99772.97;5064750;28;20067;-71
2022/09/04 21:21:35;;;;;;;6.45;5.35;;;;;;;20.64;58.97;99775.94;5065643;28;20049;-71
2022/09/04 21:24:21;;;;;;;5.30;4.80;;;;;;;20.63;58.94;99779.59;5064893;28;20087;-71
2022/09/04 21:27:14;;;;;;;6.82;5.60;;;;;;;20.57;59.07;99784.69;5065141;28;20136;-71
2022/09/04 21:30:01;;;;;;;8.25;5.63;;;;;;;20.55;59.46;99782.13;5072506;28;20094;-71
2022/09/04 21:33:00;;;;;;;8.23;6.13;;;;;;;20.52;59.30;99776.19;5084770;28;20095;-71
2022/09/04 21:35:32;;;;;;;6.72;6.03;;;;;;;20.55;59.72;99779.44;5030651;28;20079;-71
2022/09/04 21:38:10;;;;;;;6.53;5.82;;;;;;;20.10;59.53;99709.88;5084876;28;20052;-72
2022/09/04 21:41:03;;;;;;;6.07;5.47;;;;;;;20.56;59.45;99786.53;5084778;28;20052;-71
2022/09/04 21:44:13;;;;;;;6.93;5.20;;;;;;;20.50;59.51;99785.25;5085128;28;20040;-71
2022/09/04 21:46:57;;;;;;;5.63;4.97;;;;;;;20.46;60.15;99786.50;5084760;28;20358;-72
2022/09/04 21:49:47;;;;;;;6.68;5.18;;;;;;;20.46;60.02;99783.81;5084617;28;20053;-71
2022/09/04 21:52:32;;;;;;;6.28;5.40;;;;;;;20.49;59.84;99793.47;5084848;28;20056;-72
2022/09/04 21:55:16;;;;;;;5.75;4.95;;;;;;;20.42;60.56;99782.38;5084477;28;20057;-72
2022/09/04 21:58:07;;;;;;;6.05;5.25;;;;;;;20.37;60.81;99781.09;5084981;28;20043;-72
2022/09/04 22:01:00;;;;;;;6.75;5.55;;;;;;;20.38;60.32;99786.34;5084349;28;20082;-72
2022/09/04 22:03:36;;;;;;;6.72;6.03;;;;;;;20.39;60.74;99789.88;5084446;28;20048;-72
2022/09/04 22:06:15;;;;;;;6.97;5.35;;;;;;;20.02;60.81;99715.09;5084542;28;20110;-72
2022/09/04 22:08:58;;;;;;;5.80;5.13;;;;;;;20.41;60.93;99783.38;5084380;28;20098;-72
2022/09/04 22:11:44;;;;;;;6.55;5.82;;;;;;;20.37;60.79;99783.78;5084310;28;20087;-72
2022/09/04 22:14:19;;;;;;;6.32;5.05;;;;;;;20.36;60.94;99780.25;5084621;28;20052;-72
2022/09/04 22:17:19;;;;;;;5.78;5.18;;;;;;;20.34;61.16;99784.91;5086440;28;20053;-71
2022/09/04 22:20:10;;;;;;;5.32;4.82;;;;;;;20.34;60.88;99779.53;5087902;28;20056;-72
2022/09/04 22:23:01;;;;;;;6.03;5.07;;;;;;;20.29;61.17;99780.94;5041487;28;20056;-71
2022/09/04 22:25:46;;;;;;;5.78;5.18;;;;;;;20.30;61.34;99785.31;5088271;28;20064;-72
2022/09/04 22:28:36;;;;;;;;;;;;;;;20.09;61.93;99788.03;5088646;28;20110;-73
2022/09/04 22:31:30;;;;;;;6.22;5.63;;;;;;;20.18;61.87;99785.38;5087814;28;19962;-72
2022/09/04 22:34:24;;;;;;;7.93;6.38;;;;;;;20.19;62.03;99787.09;5088078;28;20105;-72
2022/09/04 22:37:28;;;;;;;9.80;6.85;;;;;;;20.21;62.10;99791.47;5085679;28;20052;-72
2022/09/04 22:40:27;;;;;;;7.00;6.30;;;;;;;20.16;61.94;99790.06;5088091;28;20056;-72
2022/09/04 22:43:11;;;;;;;6.47;5.72;;;;;;;20.19;61.89;99781.72;5087749;28;20052;-72
2022/09/04 22:46:13;;;;;;;6.63;5.55;;;;;;;20.15;61.83;99788.34;5088139;28;20231;-73
2022/09/04 22:49:22;;;;;;;7.20;5.20;;;;;;;20.15;61.97;99791.03;5087728;28;20374;-72
2022/09/04 22:52:20;;;;;;;5.85;5.05;;;;;;;20.14;62.21;99794.72;5087285;28;20102;-71
2022/09/04 22:55:03;;;;;;;6.72;5.15;;;;;;;20.13;62.38;99801.09;5087883;28;20060;-71
2022/09/04 22:57:45;;;;;;;6.20;5.60;;;;;;;20.10;62.51;99795.13;5087301;28;20195;-71
2022/09/04 23:00:14;;;;;;;6.65;5.70;;;;;;;19.83;62.36;99763.41;5069728;28;20101;-71
2022/09/04 23:03:23;;;;;;;10.02;8.05;;;;;;;20.06;62.26;99791.00;5087639;28;20330;-71
2022/09/04 23:06:32;;;;;;;9.23;6.40;;;;;;;20.06;62.47;99793.69;4987173;28;20058;-72
2022/09/04 23:09:45;;;;;;;10.15;9.15;;;;;;;19.89;62.16;99776.31;4987786;28;20258;-72
2022/09/04 23:12:33;;;;;;;8.45;7.03;;;;;;;20.00;62.20;99800.44;5087274;28;20060;-71
2022/09/04 23:15:13;;;;;;;8.73;6.95;;;;;;;19.95;62.82;99794.63;5087153;28;20056;-72
2022/09/04 23:17:51;;;;;;;8.48;7.50;;;;;;;19.91;62.73;99793.19;5087233;28;20056;-72
2022/09/04 23:20:34;;;;;;;8.23;7.13;;;;;;;19.90;62.55;99780.72;5087071;28;20263;-72
2022/09/04 23:23:30;;;;;;;8.67;7.00;;;;;;;19.88;62.57;99792.59;5087351;28;20053;-72
2022/09/04 23:26:34;;;;;;;7.63;6.13;;;;;;;19.83;62.36;99788.47;5087271;28;20051;-72
2022/09/04 23:29:33;;;;;;;9.15;7.22;;;;;;;19.71;62.93;99767.13;5086741;28;20068;-72
2022/09/04 23:32:21;;;;;;;10.30;7.10;;;;;;;19.66;62.86;99770.22;5071714;28;20052;-72
2022/09/04 23:35:08;;;;;;;8.40;6.30;;;;;;;19.79;62.56;99783.47;5086803;28;20114;-72
2022/09/04 23:37:57;;;;;;;8.50;6.85;;;;;;;19.73;63.20;99790.22;5087044;28;20064;-72
2022/09/04 23:40:37;;;;;;;7.70;6.57;;;;;;;19.74;63.05;99785.69;5087009;28;20063;-72
2022/09/04 23:43:45;;;;;;;12.20;10.90;;;;;;;19.73;63.33;99784.00;5087348;28;20106;-72
2022/09/04 23:46:35;;;;;;;9.27;8.32;;;;;;;19.70;62.84;99786.94;5086781;28;20056;-73
2022/09/04 23:49:29;;;;;;;8.73;6.60;;;;;;;19.65;62.99;99786.47;5084482;28;20110;-72
2022/09/04 23:52:03;;;;;;;8.30;6.18;;;;;;;19.58;63.38;99799.59;5086424;28;20060;-73
2022/09/04 23:54:52;;;;;;;7.43;6.57;;;;;;;19.61;63.20;99785.03;5087009;28;20078;-72
2022/09/04 23:57:28;;;;;;;6.05;5.45;;;;;;;19.49;63.04;99774.34;5086834;28;20304;-72
